createdAt,value
2023-08-17T00:01:59.153Z,13.17
2023-08-17T00:05:03.029Z,16.17
2023-08-17T00:08:07.090Z,13.52
2023-08-17T00:11:10.356Z,13.52
2023-08-17T00:14:13.976Z,15.70
2023-08-17T00:17:16.756Z,12.70
2023-08-17T00:20:20.445Z,13.23
2023-08-17T00:23:24.272Z,13.57
2023-08-17T00:26:27.304Z,14.40
2023-08-17T00:29:30.702Z,17.15
2023-08-17T00:32:33.633Z,13.10
2023-08-17T00:35:36.544Z,15.07
2023-08-17T00:38:39.449Z,13.77
2023-08-17T00:41:42.510Z,13.85
2023-08-17T00:44:46.077Z,15.20
2023-08-17T00:47:49.610Z,14.77
2023-08-17T00:50:54.653Z,15.25
2023-08-17T00:54:00.754Z,14.32
2023-08-17T00:57:07.878Z,15.65
2023-08-17T01:00:16.376Z,15.10
2023-08-17T01:03:24.615Z,14.20
2023-08-17T01:06:27.667Z,17.27
2023-08-17T01:09:33.669Z,14.05
2023-08-17T01:13:06.657Z,17.20
2023-08-17T01:16:16.153Z,16.33
2023-08-17T01:19:27.251Z,17.27
2023-08-17T01:22:32.117Z,14.93
2023-08-17T01:25:38.138Z,15.48
2023-08-17T01:28:40.951Z,15.60
2023-08-17T01:31:55.316Z,16.15
2023-08-17T01:35:08.837Z,14.77
2023-08-17T01:38:17.828Z,15.48
2023-08-17T01:41:23.786Z,15.32
2023-08-17T01:44:27.305Z,15.00
2023-08-17T01:47:31.831Z,14.32
2023-08-17T01:50:34.742Z,15.93
2023-08-17T01:53:37.748Z,14.85
2023-08-17T01:56:41.036Z,14.40
2023-08-17T01:59:45.021Z,17.17
2023-08-17T02:02:48.046Z,16.63
2023-08-17T02:05:51.633Z,15.53
2023-08-17T02:08:54.534Z,17.33
2023-08-17T02:12:00.049Z,15.60
2023-08-17T02:15:03.500Z,17.20
2023-08-17T02:18:06.461Z,16.00
2023-08-17T02:21:10.601Z,16.47
2023-08-17T02:24:16.235Z,16.65
2023-08-17T02:27:19.133Z,17.25
2023-08-17T02:30:22.152Z,16.35
2023-08-17T02:33:25.761Z,17.67
2023-08-17T02:36:28.854Z,19.20
2023-08-17T02:39:32.762Z,15.60
2023-08-17T02:42:35.767Z,16.77
2023-08-17T02:45:38.608Z,16.85
2023-08-17T02:48:42.307Z,15.65
2023-08-17T02:51:45.588Z,17.63
2023-08-17T02:54:48.641Z,19.55
2023-08-17T02:57:52.148Z,20.60
2023-08-17T03:00:55.592Z,18.63
2023-08-17T03:03:59.175Z,19.90
2023-08-17T03:07:02.895Z,20.23
2023-08-17T03:10:07.126Z,18.27
2023-08-17T03:13:10.077Z,22.55
2023-08-17T03:16:13.020Z,19.52
2023-08-17T03:19:16.740Z,17.10
2023-08-17T03:22:21.276Z,16.20
2023-08-17T03:25:25.012Z,17.33
2023-08-17T03:28:28.733Z,17.92
2023-08-17T03:31:32.718Z,17.52
2023-08-17T03:34:38.481Z,19.98
2023-08-17T03:37:43.727Z,16.13
2023-08-17T03:40:50.800Z,16.80
2023-08-17T03:43:54.725Z,16.95
2023-08-17T03:46:58.223Z,18.63
2023-08-17T03:50:01.084Z,17.05
2023-08-17T03:53:04.196Z,19.50
2023-08-17T03:56:07.187Z,16.73
2023-08-17T03:59:10.694Z,17.00
2023-08-17T04:02:14.254Z,16.63
2023-08-17T04:05:18.409Z,19.20
2023-08-17T04:08:21.384Z,18.50
2023-08-17T04:11:24.379Z,18.30
2023-08-17T04:14:28.272Z,17.35
2023-08-17T04:17:32.399Z,16.15
2023-08-17T04:20:36.258Z,18.13
2023-08-17T04:23:40.483Z,17.60
2023-08-17T04:26:43.410Z,15.70
2023-08-17T04:29:47.216Z,21.73
2023-08-17T04:32:53.834Z,23.67
2023-08-17T04:35:57.199Z,17.35
2023-08-17T04:39:00.401Z,17.33
2023-08-17T04:42:05.212Z,15.95
2023-08-17T04:45:11.034Z,18.00
2023-08-17T04:48:17.481Z,17.50
2023-08-17T04:51:23.231Z,18.42
2023-08-17T04:54:26.826Z,19.17
2023-08-17T04:57:30.580Z,16.55
2023-08-17T05:00:34.796Z,20.42
2023-08-17T05:03:39.424Z,18.08
2023-08-17T05:06:44.270Z,16.10
2023-08-17T05:09:48.436Z,16.50
2023-08-17T05:12:51.478Z,19.17
2023-08-17T05:15:55.440Z,19.30
2023-08-17T05:19:00.690Z,20.00
2023-08-17T05:22:05.409Z,19.90
2023-08-17T05:25:09.253Z,18.87
2023-08-17T05:28:18.023Z,20.13
2023-08-17T05:31:22.213Z,21.73
2023-08-17T05:34:27.422Z,20.02
2023-08-17T05:37:31.356Z,18.90
2023-08-17T05:40:34.483Z,19.97
2023-08-17T05:43:38.040Z,22.60
2023-08-17T05:46:42.077Z,20.17
2023-08-17T05:49:45.256Z,18.88
2023-08-17T05:52:48.190Z,18.13
2023-08-17T05:55:51.209Z,19.23
2023-08-17T05:58:54.201Z,17.13
2023-08-17T06:01:57.144Z,19.35
2023-08-17T06:05:00.808Z,16.45
2023-08-17T06:08:04.667Z,18.20
2023-08-17T06:11:08.119Z,15.70
2023-08-17T06:14:12.072Z,18.02
2023-08-17T06:17:15.815Z,15.77
2023-08-17T06:20:19.811Z,18.05
2023-08-17T06:23:26.536Z,26.30
2023-08-17T06:26:30.165Z,13.47
2023-08-17T06:29:33.107Z,14.98
2023-08-17T06:32:36.112Z,16.65
2023-08-17T06:35:38.931Z,15.68
2023-08-17T06:38:43.571Z,16.15
2023-08-17T06:41:47.338Z,17.17
2023-08-17T06:44:51.096Z,14.70
2023-08-17T06:47:55.132Z,14.95
2023-08-17T06:50:58.116Z,20.75
2023-08-17T06:54:01.249Z,14.70
2023-08-17T06:57:04.378Z,14.70
2023-08-17T07:00:08.973Z,15.95
2023-08-17T07:03:14.772Z,14.38
2023-08-17T07:06:19.105Z,12.10
2023-08-17T07:09:22.363Z,14.07
2023-08-17T07:12:25.540Z,12.50
2023-08-17T07:15:28.436Z,12.20
2023-08-17T07:18:32.065Z,11.80
2023-08-17T07:21:35.490Z,15.23
2023-08-17T07:24:39.405Z,12.57
2023-08-17T07:27:43.443Z,10.50
2023-08-17T07:30:46.636Z,11.13
2023-08-17T07:33:49.965Z,14.07
2023-08-17T07:36:52.961Z,11.35
2023-08-17T07:39:56.040Z,12.02
2023-08-17T07:42:58.979Z,14.20
2023-08-17T07:46:01.986Z,11.02
2023-08-17T07:49:06.063Z,11.43
2023-08-17T07:52:11.781Z,13.32
2023-08-17T07:55:15.690Z,12.05
2023-08-17T07:58:18.646Z,12.27
2023-08-17T08:01:22.176Z,13.23
2023-08-17T08:04:25.329Z,10.98
2023-08-17T08:07:28.503Z,13.95
2023-08-17T08:10:31.764Z,13.27
2023-08-17T08:13:34.696Z,12.20
2023-08-17T08:16:38.103Z,11.93
2023-08-17T08:19:40.968Z,15.13
2023-08-17T08:22:44.785Z,9.35
2023-08-17T08:25:48.720Z,9.95
2023-08-17T08:28:52.175Z,11.70
2023-08-17T08:31:55.092Z,7.93
2023-08-17T08:34:58.738Z,8.95
2023-08-17T08:38:02.223Z,9.23
2023-08-17T08:41:06.687Z,7.28
2023-08-17T08:44:09.809Z,7.27
2023-08-17T08:47:14.728Z,6.13
2023-08-17T08:50:23.374Z,5.35
2023-08-17T08:53:36.770Z,7.55
2023-08-17T08:59:50.935Z,10.63
2023-08-17T09:02:55.395Z,7.63
2023-08-17T09:05:59.239Z,9.68
2023-08-17T09:09:03.871Z,8.27
2023-08-17T09:12:11.015Z,8.55
2023-08-17T09:15:14.064Z,6.10
2023-08-17T09:18:18.857Z,8.18
2023-08-17T09:21:24.653Z,7.72
2023-08-17T09:24:38.258Z,7.13
2023-08-17T09:27:42.697Z,5.95
2023-08-17T09:31:05.022Z,6.87
2023-08-17T09:34:10.617Z,6.43
2023-08-17T09:37:14.795Z,6.97
2023-08-17T09:40:22.380Z,8.65
2023-08-17T09:43:30.282Z,8.43
2023-08-17T09:46:34.548Z,6.87
2023-08-17T09:49:37.549Z,7.05
2023-08-17T09:52:41.183Z,6.97
2023-08-17T09:55:45.911Z,7.18
2023-08-17T09:58:49.897Z,9.32
2023-08-17T10:01:57.026Z,6.73
2023-08-17T10:05:01.760Z,6.43
2023-08-17T10:08:08.009Z,6.57
2023-08-17T10:11:13.405Z,7.20
2023-08-17T10:14:23.325Z,7.57
2023-08-17T10:17:29.402Z,6.87
2023-08-17T10:20:35.640Z,7.47
2023-08-17T10:23:42.778Z,9.13
2023-08-17T10:26:47.487Z,7.30
2023-08-17T10:29:53.318Z,8.13
2023-08-17T10:32:57.921Z,7.57
2023-08-17T10:36:02.569Z,6.07
2023-08-17T10:39:27.005Z,8.52
2023-08-17T10:42:37.909Z,7.63
2023-08-17T10:45:41.460Z,8.02
2023-08-17T10:48:45.616Z,6.97
2023-08-17T10:52:03.672Z,7.45
2023-08-17T10:55:11.421Z,7.45
2023-08-17T10:58:16.175Z,10.40
2023-08-17T11:01:38.096Z,6.32
2023-08-17T11:04:42.002Z,6.80
2023-08-17T11:07:46.196Z,5.40
2023-08-17T11:11:08.230Z,5.80
2023-08-17T11:14:11.335Z,6.25
2023-08-17T11:17:14.906Z,6.20
2023-08-17T11:20:18.066Z,7.00
2023-08-17T11:23:26.058Z,5.90
2023-08-17T11:26:35.482Z,6.32
2023-08-17T11:32:53.788Z,8.07
2023-08-17T11:36:03.216Z,8.07
2023-08-17T11:39:10.462Z,6.88
2023-08-17T11:42:20.166Z,8.98
2023-08-17T11:45:27.593Z,8.93
2023-08-17T11:48:36.681Z,7.93
2023-08-17T11:51:43.131Z,11.20
2023-08-17T11:54:46.915Z,5.82
2023-08-17T11:57:55.950Z,6.90
2023-08-17T12:00:59.001Z,5.95
2023-08-17T12:04:06.043Z,6.10
2023-08-17T12:07:11.024Z,5.70
2023-08-17T12:10:14.533Z,8.65
2023-08-17T12:13:17.541Z,6.00
2023-08-17T12:16:22.289Z,7.38
2023-08-17T12:19:28.830Z,7.38
2023-08-17T12:22:31.832Z,6.87
2023-08-17T12:25:35.558Z,7.85
2023-08-17T12:28:41.521Z,8.05
2023-08-17T12:31:45.795Z,9.55
2023-08-17T12:34:49.688Z,7.97
2023-08-17T12:37:55.124Z,6.33
2023-08-17T12:41:00.002Z,6.38
2023-08-17T12:44:03.619Z,6.22
2023-08-17T12:47:07.588Z,8.65
2023-08-17T12:50:11.528Z,7.10
2023-08-17T12:53:14.433Z,6.57
2023-08-17T12:56:17.598Z,8.18
2023-08-17T12:59:21.069Z,7.93
2023-08-17T13:02:25.259Z,6.50
2023-08-17T13:05:30.177Z,7.38
2023-08-17T13:08:33.272Z,6.40
2023-08-17T13:11:37.141Z,10.20
2023-08-17T13:14:40.498Z,6.38
2023-08-17T13:17:47.337Z,6.60
2023-08-17T13:20:50.380Z,5.72
2023-08-17T13:23:53.279Z,8.47
2023-08-17T13:26:58.777Z,7.22
2023-08-17T13:30:02.820Z,8.60
2023-08-17T13:33:07.674Z,7.20
2023-08-17T13:36:10.694Z,7.97
2023-08-17T13:39:14.639Z,7.83
2023-08-17T13:42:18.561Z,7.47
2023-08-17T13:45:22.308Z,7.22
2023-08-17T13:48:26.075Z,9.77
2023-08-17T13:51:29.740Z,7.75
2023-08-17T13:54:33.626Z,7.70
2023-08-17T13:57:37.391Z,6.70
2023-08-17T14:00:40.374Z,10.20
2023-08-17T14:03:44.556Z,8.35
2023-08-17T14:06:48.205Z,7.03
2023-08-17T14:10:05.525Z,6.90
2023-08-17T14:13:11.002Z,7.10
2023-08-17T14:16:14.734Z,6.80
2023-08-17T14:19:18.570Z,8.73
2023-08-17T14:22:21.416Z,10.88
2023-08-17T14:25:24.483Z,8.80
2023-08-17T14:28:27.898Z,8.10
2023-08-17T14:31:31.624Z,9.48
2023-08-17T14:34:34.923Z,11.30
2023-08-17T14:37:38.721Z,10.75
2023-08-17T14:40:46.279Z,8.87
2023-08-17T14:43:51.379Z,8.70
2023-08-17T14:46:54.256Z,11.20
2023-08-17T14:49:57.322Z,11.85
2023-08-17T14:53:00.321Z,10.23
2023-08-17T14:56:03.338Z,9.73
2023-08-17T14:59:10.447Z,9.05
2023-08-17T15:02:15.183Z,14.02
2023-08-17T15:05:18.231Z,17.33
2023-08-17T15:08:21.358Z,13.60
2023-08-17T15:11:24.643Z,15.17
2023-08-17T15:14:27.754Z,16.08
2023-08-17T15:17:30.671Z,13.77
2023-08-17T15:20:33.736Z,12.15
2023-08-17T15:23:37.335Z,14.85
2023-08-17T15:26:40.853Z,15.27
2023-08-17T15:29:43.910Z,14.85
2023-08-17T15:32:47.972Z,13.60
2023-08-17T15:35:51.750Z,13.35
2023-08-17T15:38:55.200Z,11.82
2023-08-17T15:41:59.494Z,14.70
2023-08-17T15:45:02.515Z,11.35
2023-08-17T15:48:05.619Z,12.90
2023-08-17T15:51:08.571Z,12.00
2023-08-17T15:54:14.382Z,11.90
2023-08-17T15:57:19.695Z,9.63
2023-08-17T16:00:23.714Z,9.32
2023-08-17T16:03:27.313Z,10.20
2023-08-17T16:06:30.821Z,9.65
2023-08-17T16:09:33.874Z,10.65
2023-08-17T16:12:42.924Z,13.60
2023-08-17T16:15:53.154Z,9.65
2023-08-17T16:18:56.283Z,13.18
2023-08-17T16:21:59.353Z,11.00
2023-08-17T16:25:02.968Z,12.77
2023-08-17T16:28:08.963Z,10.23
2023-08-17T16:31:14.160Z,9.38
2023-08-17T16:34:19.913Z,10.90
2023-08-17T16:37:23.041Z,10.43
2023-08-17T16:40:37.872Z,10.82
2023-08-17T16:43:42.074Z,11.20
2023-08-17T16:46:45.900Z,11.10
2023-08-17T16:49:48.840Z,14.88
2023-08-17T16:52:51.822Z,13.18
2023-08-17T16:55:55.837Z,13.38
2023-08-17T16:59:02.021Z,13.57
2023-08-17T17:02:07.015Z,14.20
2023-08-17T17:05:10.418Z,16.98
2023-08-17T17:08:13.371Z,13.90
2023-08-17T17:11:16.340Z,11.65
2023-08-17T17:14:19.563Z,11.17
2023-08-17T17:17:22.642Z,12.88
2023-08-17T17:20:25.718Z,15.15
2023-08-17T17:23:28.716Z,11.77
2023-08-17T17:26:31.603Z,14.70
2023-08-17T17:29:35.451Z,15.23
2023-08-17T17:32:38.526Z,15.02
2023-08-17T17:35:42.418Z,11.00
2023-08-17T17:38:46.083Z,16.73
2023-08-17T17:41:49.251Z,13.43
2023-08-17T17:44:52.292Z,13.70
2023-08-17T17:47:55.948Z,21.67
2023-08-17T17:50:58.860Z,13.80
2023-08-17T17:54:01.778Z,11.80
2023-08-17T17:57:06.072Z,12.48
2023-08-17T18:00:11.399Z,12.93
2023-08-17T18:03:19.706Z,11.70
2023-08-17T18:06:23.715Z,12.00
2023-08-17T18:09:27.751Z,11.77
2023-08-17T18:12:31.677Z,10.73
2023-08-17T18:15:36.686Z,10.70
2023-08-17T18:18:40.000Z,11.02
2023-08-17T18:21:43.457Z,11.90
2023-08-17T18:24:46.724Z,12.30
2023-08-17T18:27:49.971Z,12.77
2023-08-17T18:30:53.720Z,15.17
2023-08-17T18:33:57.708Z,12.38
2023-08-17T18:37:03.865Z,12.77
2023-08-17T18:40:08.092Z,12.20
2023-08-17T18:43:12.061Z,16.35
2023-08-17T18:46:15.292Z,10.83
2023-08-17T18:49:18.304Z,13.93
2023-08-17T18:52:21.183Z,11.93
2023-08-17T18:55:24.841Z,11.63
2023-08-17T18:58:28.484Z,13.15
2023-08-17T19:01:32.658Z,12.33
2023-08-17T19:04:36.748Z,10.70
2023-08-17T19:07:40.676Z,12.20
2023-08-17T19:10:43.657Z,12.23
2023-08-17T19:13:46.564Z,14.80
2023-08-17T19:16:49.921Z,12.47
2023-08-17T19:19:53.326Z,15.90
2023-08-17T19:22:57.131Z,13.55
2023-08-17T19:26:00.713Z,13.98
2023-08-17T19:29:04.040Z,15.50
2023-08-17T19:32:07.686Z,14.70
2023-08-17T19:35:11.188Z,11.77
2023-08-17T19:38:15.416Z,13.88
2023-08-17T19:41:19.146Z,13.10
2023-08-17T19:44:22.628Z,13.73
2023-08-17T19:47:25.666Z,14.83
2023-08-17T19:50:29.796Z,16.00
2023-08-17T19:53:32.747Z,14.60
2023-08-17T19:56:36.549Z,15.98
2023-08-17T19:59:40.248Z,15.35
2023-08-17T20:02:44.201Z,13.90
2023-08-17T20:05:48.338Z,14.00
2023-08-17T20:08:51.624Z,13.30
2023-08-17T20:11:56.023Z,11.23
2023-08-17T20:15:00.182Z,13.18
2023-08-17T20:18:03.577Z,11.73
2023-08-17T20:21:07.460Z,12.30
2023-08-17T20:24:11.240Z,11.82
2023-08-17T20:27:15.198Z,13.35
2023-08-17T20:30:18.756Z,12.18
2023-08-17T20:33:23.704Z,13.27
2023-08-17T20:36:27.286Z,13.75
2023-08-17T20:39:31.175Z,11.65
2023-08-17T20:42:34.027Z,12.40
2023-08-17T20:45:41.598Z,12.95
2023-08-17T20:48:44.608Z,13.57
2023-08-17T20:51:49.370Z,11.75
2023-08-17T20:54:53.280Z,13.13
2023-08-17T20:57:58.810Z,12.55
2023-08-17T21:01:01.985Z,13.25
2023-08-17T21:04:05.921Z,13.27
2023-08-17T21:07:08.959Z,13.48
2023-08-17T21:10:12.750Z,19.73
2023-08-17T21:13:16.215Z,14.57
2023-08-17T21:16:19.116Z,16.55
2023-08-17T21:19:22.041Z,12.43
2023-08-17T21:22:26.534Z,16.50
2023-08-17T21:25:30.301Z,16.67
2023-08-17T21:28:33.242Z,13.80
2023-08-17T21:31:36.359Z,13.48
2023-08-17T21:34:39.885Z,14.97
2023-08-17T21:37:44.373Z,13.18
2023-08-17T21:40:47.500Z,13.48
2023-08-17T21:43:53.396Z,14.70
2023-08-17T21:46:57.865Z,13.90
2023-08-17T21:50:01.328Z,16.37
2023-08-17T21:53:04.418Z,13.13
2023-08-17T21:56:07.289Z,15.10
2023-08-17T21:59:10.292Z,15.50
2023-08-17T22:02:13.183Z,14.40
2023-08-17T22:05:16.173Z,15.93
2023-08-17T22:08:19.870Z,13.63
2023-08-17T22:11:23.480Z,15.20
2023-08-17T22:14:27.361Z,13.85
2023-08-17T22:17:31.253Z,12.77
2023-08-17T22:20:36.027Z,14.30
2023-08-17T22:23:39.092Z,13.60
2023-08-17T22:26:42.795Z,12.82
2023-08-17T22:29:45.803Z,14.88
2023-08-17T22:32:49.369Z,17.15
2023-08-17T22:35:52.871Z,16.50
2023-08-17T22:38:55.766Z,14.93
2023-08-17T22:41:58.890Z,14.40
2023-08-17T22:45:01.663Z,13.32
2023-08-17T22:48:05.674Z,15.30
2023-08-17T22:51:10.455Z,13.23
2023-08-17T22:54:14.086Z,15.10
2023-08-17T22:57:17.387Z,13.93
2023-08-17T23:00:20.681Z,12.50
2023-08-17T23:03:23.791Z,13.95
2023-08-17T23:06:27.534Z,12.43
2023-08-17T23:09:30.330Z,15.60
2023-08-17T23:12:33.860Z,13.05
2023-08-17T23:15:36.645Z,11.85
2023-08-17T23:18:39.579Z,12.30
2023-08-17T23:21:42.428Z,13.97
2023-08-17T23:24:46.088Z,13.52
2023-08-17T23:27:48.942Z,13.38
2023-08-17T23:30:52.219Z,13.45
2023-08-17T23:33:55.092Z,14.00
2023-08-17T23:36:58.843Z,14.47
2023-08-17T23:40:01.772Z,15.30
2023-08-17T23:43:05.451Z,15.80
2023-08-17T23:46:09.478Z,16.05
2023-08-17T23:49:12.783Z,13.00
2023-08-17T23:52:15.667Z,14.30
2023-08-17T23:55:19.599Z,13.30
2023-08-17T23:58:23.767Z,15.77
